Time;durP1;ratioP1;P1;durP2;ratioP2;P2;SDS_P1;SDS_P2;PMS_P1;PMS_P2;Temp;Humidity;BMP_temperature;BMP_pressure;BME280_temperature;BME280_humidity;BME280_pressure;Samples;Min_cycle;Max_cycle;Signal;HPM_P1;HPM_P2
2022/06/24 00:00:13;;;;;;;4.43;1.92;;;21.70;80.60;;;;;;5091196;28;20403;-75
2022/06/24 00:02:40;;;;;;;5.65;1.60;;;21.70;81.80;;;;;;5091917;28;20130;-75
2022/06/24 00:05:11;;;;;;;4.47;1.83;;;21.60;83.00;;;;;;5073465;28;20509;-75
2022/06/24 00:07:51;;;;;;;5.28;1.90;;;21.50;83.80;;;;;;5056176;28;20110;-76
2022/06/24 00:10:28;;;;;;;2.88;1.60;;;21.40;84.30;;;;;;5091282;28;20055;-75
2022/06/24 00:12:54;;;;;;;2.38;1.65;;;21.30;85.00;;;;;;5091011;28;20044;-74
2022/06/24 00:15:24;;;;;;;3.72;2.00;;;21.30;84.50;;;;;;5072668;28;20052;-75
2022/06/24 00:17:50;;;;;;;3.72;2.00;;;21.20;85.30;;;;;;5091326;28;20056;-74
2022/06/24 00:20:17;;;;;;;4.85;1.88;;;21.10;87.00;;;;;;5090975;28;20076;-73
2022/06/24 00:22:45;;;;;;;7.40;2.00;;;21.00;87.60;;;;;;5072824;28;20048;-74
2022/06/24 00:25:19;;;;;;;3.80;1.73;;;21.00;88.30;;;;;;5090988;28;20075;-74
2022/06/24 00:28:08;;;;;;;5.15;1.85;;;20.90;89.80;;;;;;5072804;28;20074;-75
2022/06/24 00:30:41;;;;;;;2.88;1.80;;;20.80;91.10;;;;;;5090737;28;20613;-75
2022/06/24 00:33:16;;;;;;;6.20;2.22;;;20.80;91.00;;;;;;5090318;28;20495;-74
2022/06/24 00:35:47;;;;;;;5.25;2.10;;;20.70;91.00;;;;;;5090726;28;20051;-75
2022/06/24 00:38:35;;;;;;;4.38;1.70;;;20.60;92.00;;;;;;5072616;28;20052;-73
2022/06/24 00:41:03;;;;;;;4.60;2.05;;;20.50;93.60;;;;;;5090789;28;20044;-74
2022/06/24 00:43:37;;;;;;;7.03;2.55;;;20.30;93.50;;;;;;5072820;28;20047;-75
2022/06/24 00:46:37;;;;;;;4.63;2.10;;;20.30;94.60;;;;;;5090447;28;20435;-75
2022/06/24 00:49:06;;;;;;;4.85;1.85;;;20.30;95.20;;;;;;5062563;28;20056;-75
2022/06/24 00:51:38;;;;;;;3.47;2.10;;;20.20;95.30;;;;;;5072477;28;20050;-74
2022/06/24 00:54:09;;;;;;;4.63;1.90;;;20.10;96.10;;;;;;5072544;28;20044;-74
2022/06/24 00:56:35;;;;;;;3.05;2.05;;;20.00;98.00;;;;;;5090539;28;20436;-74
2022/06/24 00:59:06;;;;;;;5.72;1.90;;;19.90;97.90;;;;;;5090440;28;20048;-74
2022/06/24 01:01:36;;;;;;;4.20;2.10;;;19.80;98.30;;;;;;5090422;28;20407;-74
2022/06/24 01:04:07;;;;;;;4.22;2.15;;;19.60;99.50;;;;;;5072492;28;20082;-75
2022/06/24 01:06:34;;;;;;;4.57;1.88;;;19.60;99.90;;;;;;5090396;28;20499;-74
2022/06/24 01:08:59;;;;;;;3.42;2.10;;;19.50;99.90;;;;;;5090435;28;20455;-75
2022/06/24 01:11:36;;;;;;;5.57;2.08;;;19.50;99.90;;;;;;5072476;28;20051;-75
2022/06/24 01:14:03;;;;;;;7.07;2.40;;;19.40;99.90;;;;;;5090564;28;20098;-75
2022/06/24 01:16:29;;;;;;;10.40;2.50;;;19.30;99.90;;;;;;5090411;28;20407;-74
2022/06/24 01:18:57;;;;;;;3.97;2.00;;;19.20;99.90;;;;;;5090553;28;20048;-76
2022/06/24 01:21:36;;;;;;;5.05;2.05;;;19.40;99.90;;;;;;5090319;28;20048;-72
2022/06/24 01:24:12;;;;;;;9.00;2.40;;;19.40;99.40;;;;;;5090111;28;20112;-75
2022/06/24 01:26:42;;;;;;;4.68;1.98;;;19.40;98.70;;;;;;5090484;28;20101;-73
2022/06/24 01:29:08;;;;;;;5.57;2.22;;;19.50;98.30;;;;;;5090324;28;20487;-73
2022/06/24 01:31:35;;;;;;;5.28;2.40;;;19.50;98.00;;;;;;5072115;28;20059;-73
2022/06/24 01:34:01;;;;;;;3.42;2.00;;;19.50;97.60;;;;;;5090170;28;20532;-74
2022/06/24 01:36:27;;;;;;;3.88;2.00;;;19.60;97.40;;;;;;5090288;28;20075;-74
2022/06/24 01:38:53;;;;;;;10.15;2.22;;;19.60;97.10;;;;;;5089997;28;20487;-72
2022/06/24 01:41:19;;;;;;;4.78;2.20;;;19.60;97.00;;;;;;5072190;28;20041;-74
2022/06/24 01:43:44;;;;;;;3.55;2.03;;;19.60;96.80;;;;;;5090629;28;20040;-72
2022/06/24 01:46:11;;;;;;;5.07;2.10;;;19.70;96.50;;;;;;5094136;28;20162;-73
2022/06/24 01:48:40;;;;;;;6.43;1.83;;;19.70;96.40;;;;;;5093972;28;20545;-75
2022/06/24 01:51:09;;;;;;;5.45;2.00;;;19.70;96.30;;;;;;5093876;28;20036;-73
2022/06/24 01:53:35;;;;;;;8.50;2.30;;;19.70;96.30;;;;;;5093467;28;20055;-73
2022/06/24 01:56:01;;;;;;;6.20;1.90;;;19.70;96.40;;;;;;5093933;28;20096;-75
2022/06/24 01:58:27;;;;;;;6.13;2.15;;;19.70;96.30;;;;;;5075730;28;20534;-75
2022/06/24 02:00:53;;;;;;;4.90;2.13;;;19.60;96.50;;;;;;5093887;28;20475;-74
2022/06/24 02:03:18;;;;;;;5.57;1.90;;;19.60;96.90;;;;;;5093367;28;20051;-74
2022/06/24 02:05:46;;;;;;;3.40;1.77;;;19.60;96.90;;;;;;5075330;28;20044;-74
2022/06/24 02:08:11;;;;;;;6.55;2.15;;;19.60;96.80;;;;;;5093451;28;20047;-73
2022/06/24 02:13:27;;;;;;;6.22;2.17;;;19.50;96.80;;;;;;5093511;28;20182;-74
2022/06/24 02:15:55;;;;;;;3.58;2.00;;;19.60;96.80;;;;;;5093486;28;20055;-72
2022/06/24 02:18:21;;;;;;;3.72;1.83;;;19.50;96.80;;;;;;5074780;28;20048;-74
2022/06/24 02:20:46;;;;;;;5.80;2.03;;;19.50;96.70;;;;;;5093074;28;20051;-74
2022/06/24 02:23:12;;;;;;;5.60;2.30;;;19.60;97.00;;;;;;5093217;28;20044;-74
2022/06/24 02:25:38;;;;;;;5.57;2.00;;;19.50;97.20;;;;;;5075311;28;20083;-74
2022/06/24 02:28:03;;;;;;;4.03;2.08;;;19.50;97.00;;;;;;5093388;28;20044;-73
2022/06/24 02:30:29;;;;;;;4.63;2.08;;;19.50;97.10;;;;;;5093128;28;20055;-74
2022/06/24 02:32:55;;;;;;;4.00;2.15;;;19.50;97.00;;;;;;5074490;28;20044;-72
2022/06/24 02:35:21;;;;;;;5.57;2.08;;;19.40;97.50;;;;;;5093050;28;20048;-73
2022/06/24 02:37:46;;;;;;;10.05;2.53;;;19.50;97.50;;;;;;5074647;28;20044;-73
2022/06/24 02:42:58;;;;;;;4.07;2.00;;;19.50;97.40;;;;;;5093114;28;20044;-76
2022/06/24 02:45:23;;;;;;;6.03;2.25;;;19.50;97.40;;;;;;5093101;28;20067;-76
2022/06/24 02:47:49;;;;;;;4.88;2.17;;;19.60;97.80;;;;;;5092887;28;20063;-73
2022/06/24 02:50:15;;;;;;;5.45;2.30;;;19.50;97.70;;;;;;5092517;28;20047;-73
2022/06/24 02:52:41;;;;;;;6.20;2.30;;;19.60;97.80;;;;;;5092827;28;20360;-73
2022/06/24 02:55:07;;;;;;;6.53;2.35;;;19.60;98.50;;;;;;5074081;28;20044;-73
2022/06/24 02:57:32;;;;;;;8.55;2.58;;;19.50;99.10;;;;;;5074476;28;20139;-73
2022/06/24 02:59:58;;;;;;;5.78;2.33;;;19.50;99.90;;;;;;5092750;28;20139;-74
2022/06/24 03:02:24;;;;;;;5.35;2.60;;;19.60;99.90;;;;;;5074297;28;20127;-73
2022/06/24 03:04:49;;;;;;;4.72;2.40;;;19.50;99.90;;;;;;5092120;28;20086;-74
2022/06/24 03:07:15;;;;;;;4.03;2.20;;;19.50;99.90;;;;;;5074339;28;20048;-74
2022/06/24 03:09:41;;;;;;;3.67;2.25;;;19.40;99.90;;;;;;5074430;28;20072;-74
2022/06/24 03:12:07;;;;;;;5.63;2.53;;;19.40;99.90;;;;;;5074152;28;20082;-72
2022/06/24 03:14:32;;;;;;;7.03;2.50;;;19.40;99.90;;;;;;5092233;28;20052;-73
2022/06/24 03:16:58;;;;;;;5.55;2.53;;;19.40;99.90;;;;;;5092105;28;20403;-73
2022/06/24 03:19:24;;;;;;;4.95;2.17;;;19.50;99.90;;;;;;5090447;28;20122;-72
2022/06/24 03:21:49;;;;;;;7.85;2.35;;;19.40;99.90;;;;;;5092020;28;20040;-72
2022/06/24 03:24:16;;;;;;;5.93;2.53;;;19.50;99.90;;;;;;5073875;28;20040;-75
2022/06/24 03:26:42;;;;;;;6.65;2.30;;;19.50;99.90;;;;;;5092227;28;20544;-73
2022/06/24 03:29:07;;;;;;;6.32;2.47;;;19.50;99.80;;;;;;5092129;28;20044;-74
2022/06/24 03:31:33;;;;;;;7.22;2.30;;;19.50;99.90;;;;;;5073662;28;20059;-72
2022/06/24 03:33:58;;;;;;;5.60;2.33;;;19.50;99.90;;;;;;5073617;28;20044;-72
2022/06/24 03:36:25;;;;;;;4.80;2.30;;;19.50;99.90;;;;;;5091530;28;20418;-72
2022/06/24 03:38:51;;;;;;;4.43;2.30;;;19.50;99.90;;;;;;5091775;28;20054;-73
2022/06/24 03:41:17;;;;;;;6.85;2.30;;;19.50;99.90;;;;;;5073686;28;20052;-73
2022/06/24 03:43:42;;;;;;;7.47;2.50;;;19.50;99.90;;;;;;5091814;28;20055;-73
2022/06/24 03:46:08;;;;;;;5.25;2.55;;;19.60;99.90;;;;;;5091450;28;20059;-73
2022/06/24 03:48:34;;;;;;;6.93;2.83;;;19.50;99.90;;;;;;5073587;28;20040;-74
2022/06/24 03:50:59;;;;;;;7.22;2.60;;;19.60;99.90;;;;;;5091308;28;20044;-73
2022/06/24 03:53:25;;;;;;;4.70;2.45;;;19.60;99.90;;;;;;5091432;28;20135;-73
2022/06/24 03:55:51;;;;;;;6.72;2.63;;;19.60;99.90;;;;;;5091761;28;20051;-74
2022/06/24 03:58:18;;;;;;;7.13;2.65;;;19.60;99.90;;;;;;5073150;28;20048;-73
2022/06/24 04:00:44;;;;;;;6.38;2.53;;;19.70;99.90;;;;;;5091665;28;20092;-73
2022/06/24 04:03:10;;;;;;;4.20;2.75;;;19.70;99.90;;;;;;5073550;28;20410;-72
2022/06/24 04:05:36;;;;;;;4.43;2.70;;;19.70;99.90;;;;;;5091216;28;20036;-75
2022/06/24 04:08:02;;;;;;;6.22;2.42;;;19.80;99.90;;;;;;5090352;28;20039;-73
2022/06/24 04:10:28;;;;;;;8.00;2.92;;;19.80;99.90;;;;;;5091475;28;20082;-73
2022/06/24 04:12:54;;;;;;;6.15;2.80;;;19.80;99.90;;;;;;5091183;28;20075;-74
2022/06/24 04:15:19;;;;;;;8.52;3.20;;;19.80;99.90;;;;;;5091146;28;20505;-73
2022/06/24 04:17:47;;;;;;;9.27;2.50;;;19.90;99.90;;;;;;5091079;28;20040;-73
2022/06/24 04:20:15;;;;;;;7.22;2.92;;;19.90;99.90;;;;;;5072905;28;20051;-73
2022/06/24 04:22:41;;;;;;;5.72;3.15;;;19.90;99.90;;;;;;5090773;28;20055;-74
2022/06/24 04:25:08;;;;;;;6.97;3.28;;;19.90;99.90;;;;;;5090966;28;20514;-74
2022/06/24 04:27:34;;;;;;;8.95;3.40;;;19.90;99.90;;;;;;5090888;28;20044;-73
2022/06/24 04:30:01;;;;;;;8.93;3.10;;;19.90;99.90;;;;;;5089541;28;20046;-73
2022/06/24 04:32:27;;;;;;;8.75;3.33;;;19.90;99.90;;;;;;5090976;28;20128;-72
2022/06/24 04:34:53;;;;;;;7.55;3.47;;;19.90;99.90;;;;;;5090832;28;20056;-72
2022/06/24 04:37:18;;;;;;;8.15;3.20;;;20.00;99.90;;;;;;5090430;28;20044;-72
2022/06/24 04:39:44;;;;;;;9.90;3.30;;;20.00;99.90;;;;;;5090770;28;20151;-73
2022/06/24 04:42:10;;;;;;;7.60;3.70;;;20.00;99.90;;;;;;5090920;28;20051;-73
2022/06/24 04:44:36;;;;;;;14.10;4.40;;;20.00;99.90;;;;;;5090562;28;20056;-72
2022/06/24 04:47:02;;;;;;;6.20;3.65;;;20.20;99.90;;;;;;5090630;28;20048;-73
2022/06/24 04:49:28;;;;;;;11.82;3.78;;;20.10;99.90;;;;;;5072713;28;20075;-75
2022/06/24 04:51:55;;;;;;;5.20;3.25;;;20.10;99.90;;;;;;5072455;28;20051;-73
2022/06/24 04:54:21;;;;;;;6.53;3.42;;;20.20;99.90;;;;;;5071961;28;20542;-73
2022/06/24 04:56:47;;;;;;;13.10;3.60;;;20.30;99.90;;;;;;5090701;28;20079;-74
2022/06/24 04:59:12;;;;;;;6.63;4.00;;;20.30;99.90;;;;;;5072610;28;20094;-73
2022/06/24 05:01:38;;;;;;;7.80;4.55;;;20.30;99.90;;;;;;5090734;28;20123;-73
2022/06/24 05:04:04;;;;;;;7.13;3.92;;;20.40;99.90;;;;;;5090488;28;20475;-72
2022/06/24 05:06:30;;;;;;;7.90;3.67;;;20.40;99.90;;;;;;5072747;28;20059;-73
2022/06/24 05:08:56;;;;;;;7.30;3.90;;;20.40;99.90;;;;;;5089982;28;20475;-72
2022/06/24 05:11:22;;;;;;;7.70;4.13;;;20.50;99.90;;;;;;5090718;28;20052;-72
2022/06/24 05:13:47;;;;;;;6.85;4.97;;;20.60;99.90;;;;;;5090538;28;20556;-72
2022/06/24 05:16:13;;;;;;;11.63;6.28;;;20.60;99.90;;;;;;5090796;28;20132;-71
2022/06/24 05:18:39;;;;;;;9.23;6.13;;;20.70;99.90;;;;;;5092802;28;20392;-73
2022/06/24 05:21:04;;;;;;;9.73;6.53;;;20.80;99.90;;;;;;5094656;28;20080;-73
2022/06/24 05:23:30;;;;;;;16.20;9.10;;;20.80;99.90;;;;;;5093945;28;20490;-75
2022/06/24 05:25:56;;;;;;;19.02;9.18;;;20.70;99.90;;;;;;5094413;28;20048;-74
2022/06/24 05:28:22;;;;;;;21.05;8.82;;;20.80;99.90;;;;;;5094528;28;20040;-74
2022/06/24 05:30:53;;;;;;;16.83;8.70;;;20.90;99.90;;;;;;5076039;28;20094;-73
2022/06/24 05:33:19;;;;;;;17.13;9.45;;;21.00;99.90;;;;;;5094187;28;20054;-73
2022/06/24 05:35:45;;;;;;;15.02;9.15;;;21.00;99.90;;;;;;5094453;28;20036;-73
2022/06/24 05:38:10;;;;;;;20.10;7.32;;;20.90;99.90;;;;;;5094181;28;20507;-74
2022/06/24 05:40:36;;;;;;;19.70;6.05;;;21.00;99.90;;;;;;5093774;28;20070;-74
2022/06/24 05:43:01;;;;;;;11.82;4.88;;;20.90;99.90;;;;;;5094279;28;20067;-74
2022/06/24 05:45:27;;;;;;;15.57;5.10;;;21.00;99.90;;;;;;5093932;28;20157;-74
2022/06/24 05:47:53;;;;;;;14.60;5.30;;;21.10;99.90;;;;;;5094102;28;20048;-75
2022/06/24 05:50:18;;;;;;;15.43;4.85;;;21.20;99.90;;;;;;5093833;28;20052;-75
2022/06/24 05:55:28;;;;;;;12.38;4.13;;;21.20;99.90;;;;;;5093720;28;20083;-73
2022/06/24 05:57:54;;;;;;;9.55;3.58;;;21.20;99.90;;;;;;5075469;28;20137;-74
2022/06/24 06:00:20;;;;;;;8.32;3.97;;;21.20;99.90;;;;;;5093864;28;20119;-74
2022/06/24 06:02:45;;;;;;;8.27;3.10;;;21.10;99.90;;;;;;5093742;28;20059;-73
2022/06/24 06:05:11;;;;;;;14.93;3.28;;;21.00;99.90;;;;;;5075673;28;20067;-75
2022/06/24 06:07:37;;;;;;;5.10;3.08;;;20.90;99.90;;;;;;5093503;28;20080;-73
2022/06/24 06:10:03;;;;;;;5.40;2.70;;;20.90;99.90;;;;;;5093287;28;20048;-73
2022/06/24 06:12:28;;;;;;;7.10;2.95;;;20.90;99.90;;;;;;5093551;28;20422;-72
2022/06/24 06:14:54;;;;;;;9.25;2.83;;;20.90;99.90;;;;;;5075222;28;20048;-71
2022/06/24 06:17:19;;;;;;;9.30;3.47;;;20.90;99.90;;;;;;5093490;28;20036;-74
2022/06/24 06:19:45;;;;;;;16.90;3.42;;;20.90;99.90;;;;;;5093531;28;20530;-73
2022/06/24 06:22:11;;;;;;;7.50;3.17;;;20.80;99.90;;;;;;5093753;28;20056;-74
2022/06/24 06:24:36;;;;;;;7.13;3.08;;;20.80;99.90;;;;;;5093280;28;20158;-75
2022/06/24 06:27:02;;;;;;;7.32;3.00;;;20.80;99.90;;;;;;5093140;28;20123;-76
2022/06/24 06:29:28;;;;;;;5.53;3.20;;;20.70;99.90;;;;;;5074204;28;20044;-76
2022/06/24 06:31:53;;;;;;;7.20;2.95;;;20.70;99.90;;;;;;5093177;28;20086;-76
2022/06/24 06:34:20;;;;;;;8.73;3.20;;;20.70;99.90;;;;;;5074882;28;20105;-77
2022/06/24 06:36:46;;;;;;;6.05;3.30;;;20.60;99.90;;;;;;5093010;28;20055;-79
2022/06/24 06:39:11;;;;;;;6.18;3.50;;;20.60;99.90;;;;;;5093007;28;20499;-76
2022/06/24 06:41:37;;;;;;;9.32;3.20;;;20.60;99.90;;;;;;5092744;28;20098;-74
2022/06/24 06:44:03;;;;;;;7.28;3.20;;;20.60;99.90;;;;;;5092940;28;20052;-76
2022/06/24 06:46:28;;;;;;;8.20;3.63;;;20.60;99.90;;;;;;5092778;28;20391;-76
2022/06/24 06:48:54;;;;;;;9.32;3.20;;;20.60;99.90;;;;;;5074698;28;20055;-75
2022/06/24 06:51:19;;;;;;;6.78;2.90;;;20.70;99.90;;;;;;5074846;28;20040;-76
2022/06/24 06:53:45;;;;;;;6.72;3.30;;;20.70;99.90;;;;;;5092659;28;20036;-76
2022/06/24 06:56:11;;;;;;;8.55;3.38;;;20.80;99.90;;;;;;5092435;28;20071;-76
2022/06/24 06:58:36;;;;;;;5.18;3.25;;;20.80;99.90;;;;;;5092909;28;20661;-74
2022/06/24 07:01:02;;;;;;;9.45;3.60;;;20.80;99.90;;;;;;5074209;28;20075;-75
2022/06/24 07:03:28;;;;;;;7.18;3.30;;;20.80;99.90;;;;;;5074426;28;20040;-76
2022/06/24 07:05:54;;;;;;;5.20;2.97;;;20.90;99.90;;;;;;5092516;28;20036;-76
2022/06/24 07:08:20;;;;;;;4.95;3.00;;;20.80;99.90;;;;;;5092382;28;20051;-75
2022/06/24 07:10:46;;;;;;;6.05;3.17;;;20.80;99.90;;;;;;5092388;28;20056;-75
2022/06/24 07:13:12;;;;;;;5.95;3.58;;;20.90;99.90;;;;;;5092302;28;20048;-76
2022/06/24 07:15:38;;;;;;;4.78;3.60;;;20.80;99.90;;;;;;5073902;28;20062;-75
2022/06/24 07:18:04;;;;;;;7.40;3.58;;;20.80;99.90;;;;;;5092482;28;20048;-75
2022/06/24 07:20:30;;;;;;;5.00;3.28;;;20.90;99.90;;;;;;5092361;28;20135;-74
2022/06/24 07:22:56;;;;;;;6.57;3.33;;;20.90;99.90;;;;;;5074108;28;20132;-75
2022/06/24 07:25:21;;;;;;;7.05;3.30;;;20.90;99.90;;;;;;5092033;28;20097;-75
2022/06/24 07:27:47;;;;;;;7.13;3.35;;;20.90;99.90;;;;;;5073682;28;20056;-75
2022/06/24 07:30:13;;;;;;;7.80;3.60;;;20.90;99.90;;;;;;5092060;28;20060;-75
2022/06/24 07:32:39;;;;;;;11.18;4.10;;;20.90;99.90;;;;;;5091934;28;20487;-76
2022/06/24 07:35:05;;;;;;;8.77;4.05;;;20.90;99.90;;;;;;5092053;28;20044;-76
2022/06/24 07:37:30;;;;;;;5.90;3.60;;;20.90;99.90;;;;;;5074263;28;20079;-77
2022/06/24 07:39:56;;;;;;;5.30;3.20;;;20.80;99.90;;;;;;5073824;28;20799;-75
2022/06/24 07:42:22;;;;;;;6.07;3.63;;;20.90;99.90;;;;;;5073262;28;20050;-76
2022/06/24 07:44:47;;;;;;;9.45;4.00;;;20.90;99.90;;;;;;5091058;28;20055;-77
2022/06/24 07:47:13;;;;;;;9.57;3.75;;;20.80;99.90;;;;;;5090474;28;20134;-77
2022/06/24 07:49:39;;;;;;;7.43;4.47;;;20.80;99.90;;;;;;5091794;28;20126;-76
2022/06/24 07:52:07;;;;;;;5.93;3.78;;;20.80;99.90;;;;;;5091675;28;20044;-76
2022/06/24 07:54:33;;;;;;;8.40;3.60;;;20.80;99.90;;;;;;5072834;28;20127;-77
2022/06/24 07:56:58;;;;;;;12.85;4.15;;;20.80;99.90;;;;;;5072981;28;20127;-78
2022/06/24 07:59:28;;;;;;;5.32;3.40;;;20.80;99.90;;;;;;5091344;28;20047;-76
2022/06/24 08:01:56;;;;;;;14.23;3.67;;;20.80;99.90;;;;;;5091430;28;20101;-74
2022/06/24 08:04:23;;;;;;;6.95;3.30;;;20.90;99.90;;;;;;5073104;28;20044;-76
2022/06/24 08:06:50;;;;;;;11.68;3.85;;;20.80;99.90;;;;;;5073539;28;20406;-77
2022/06/24 08:09:24;;;;;;;9.07;4.03;;;21.00;99.90;;;;;;5073130;28;20067;-76
2022/06/24 08:11:50;;;;;;;6.38;3.53;;;20.90;99.90;;;;;;5091079;28;20051;-76
2022/06/24 08:14:17;;;;;;;7.35;4.10;;;20.90;99.90;;;;;;5091491;28;20044;-76
2022/06/24 08:16:43;;;;;;;8.95;4.20;;;20.90;99.90;;;;;;5073394;28;20124;-77
2022/06/24 08:19:09;;;;;;;8.30;4.00;;;20.90;99.90;;;;;;5091199;28;20493;-76
2022/06/24 08:21:36;;;;;;;8.10;3.85;;;20.90;99.90;;;;;;5091146;28;20044;-78
2022/06/24 08:24:02;;;;;;;7.15;4.07;;;20.90;99.90;;;;;;5072777;28;20479;-76
2022/06/24 08:26:27;;;;;;;7.55;4.28;;;20.90;99.90;;;;;;5090648;28;20490;-77
2022/06/24 08:28:54;;;;;;;10.05;4.47;;;20.80;99.90;;;;;;5055872;28;20060;-78
2022/06/24 08:31:19;;;;;;;6.65;4.25;;;20.70;99.90;;;;;;5072720;28;20503;-78
2022/06/24 08:33:45;;;;;;;8.35;3.95;;;20.70;99.90;;;;;;5091066;28;20044;-79
2022/06/24 08:36:11;;;;;;;6.57;3.90;;;20.70;99.90;;;;;;5073092;28;20075;-77
2022/06/24 08:38:37;;;;;;;6.47;3.75;;;20.70;99.90;;;;;;5072332;28;20059;-76
2022/06/24 08:41:03;;;;;;;11.07;3.55;;;20.70;99.90;;;;;;5090543;28;20040;-75
2022/06/24 08:43:34;;;;;;;5.22;2.50;;;20.70;99.90;;;;;;5072664;28;20048;-80
2022/06/24 08:46:04;;;;;;;8.60;3.30;;;20.70;99.90;;;;;;5082014;28;20110;-78
2022/06/24 08:48:33;;;;;;;7.95;3.30;;;20.60;99.90;;;;;;5090666;28;20483;-77
2022/06/24 08:51:00;;;;;;;4.95;2.53;;;20.60;99.90;;;;;;5072408;28;20051;-75
2022/06/24 08:53:31;;;;;;;5.55;2.90;;;20.60;99.90;;;;;;5089852;28;20607;-77
2022/06/24 08:55:58;;;;;;;8.27;3.30;;;20.60;99.90;;;;;;5090423;28;20076;-75
2022/06/24 08:58:24;;;;;;;6.13;3.20;;;20.60;99.90;;;;;;5072427;28;20081;-77
2022/06/24 09:00:49;;;;;;;6.55;3.30;;;20.70;99.90;;;;;;5090472;28;20445;-76
2022/06/24 09:03:15;;;;;;;6.90;4.18;;;20.60;99.90;;;;;;5090754;28;20105;-77
2022/06/24 09:05:42;;;;;;;8.40;4.70;;;20.60;99.90;;;;;;5072716;28;20060;-78
2022/06/24 09:08:09;;;;;;;10.45;4.30;;;20.70;99.90;;;;;;5090330;28;20074;-74
2022/06/24 09:10:37;;;;;;;6.95;4.45;;;20.60;99.90;;;;;;5090522;28;20059;-77
2022/06/24 09:13:03;;;;;;;9.10;4.10;;;20.70;99.90;;;;;;5072388;28;20166;-75
2022/06/24 09:15:29;;;;;;;8.50;4.60;;;20.60;99.90;;;;;;5090153;28;20060;-78
2022/06/24 09:17:56;;;;;;;8.82;4.63;;;20.70;99.90;;;;;;5090542;28;20044;-75
2022/06/24 09:20:29;;;;;;;6.18;3.92;;;20.70;99.90;;;;;;5090407;28;20406;-75
2022/06/24 09:23:10;;;;;;;10.60;4.10;;;20.70;99.90;;;;;;5090280;28;20398;-75
2022/06/24 09:25:47;;;;;;;7.80;4.60;;;20.60;99.90;;;;;;5090558;28;20320;-79
2022/06/24 09:28:24;;;;;;;6.45;4.00;;;20.60;99.90;;;;;;5072359;28;20062;-77
2022/06/24 09:30:58;;;;;;;9.93;3.95;;;20.60;99.90;;;;;;5090011;28;20044;-76
2022/06/24 09:33:24;;;;;;;8.65;4.20;;;20.70;99.90;;;;;;5072112;28;20127;-75
2022/06/24 09:35:59;;;;;;;6.72;4.18;;;20.60;99.90;;;;;;5071866;28;20150;-77
2022/06/24 09:38:25;;;;;;;8.30;4.20;;;20.60;99.90;;;;;;5090108;28;20542;-76
2022/06/24 09:41:05;;;;;;;5.68;3.65;;;20.60;99.90;;;;;;5090231;28;20438;-74
2022/06/24 09:43:32;;;;;;;6.82;3.90;;;20.50;99.90;;;;;;5071988;28;20487;-74
2022/06/24 09:45:59;;;;;;;10.05;4.65;;;20.50;99.90;;;;;;5089998;28;20044;-77
2022/06/24 09:48:27;;;;;;;7.38;4.28;;;20.40;99.90;;;;;;5089763;28;20063;-78
2022/06/24 09:50:56;;;;;;;7.10;5.03;;;20.40;99.90;;;;;;5089903;28;20093;-78
2022/06/24 09:53:26;;;;;;;5.57;4.68;;;20.40;99.90;;;;;;5090419;28;20453;-76
2022/06/24 09:55:55;;;;;;;7.88;5.40;;;20.40;99.90;;;;;;5072506;28;20372;-75
2022/06/24 09:58:22;;;;;;;8.60;5.70;;;20.30;99.90;;;;;;5090315;28;20063;-74
2022/06/24 10:00:49;;;;;;;7.95;5.35;;;20.20;99.90;;;;;;5089978;28;20044;-75
2022/06/24 10:03:16;;;;;;;9.90;6.10;;;20.10;99.90;;;;;;5089538;28;20518;-74
2022/06/24 10:05:46;;;;;;;11.63;5.43;;;20.10;99.90;;;;;;5091817;28;20082;-77
2022/06/24 10:08:19;;;;;;;9.40;5.03;;;20.00;99.90;;;;;;5093763;28;20043;-76
2022/06/24 10:10:56;;;;;;;8.20;4.97;;;20.00;99.90;;;;;;5075752;28;20475;-75
2022/06/24 10:13:29;;;;;;;7.40;4.75;;;19.90;99.90;;;;;;5093448;28;20108;-81
2022/06/24 10:16:06;;;;;;;5.63;4.03;;;19.80;99.90;;;;;;5093806;28;20056;-78
2022/06/24 10:18:39;;;;;;;5.68;3.33;;;19.70;99.90;;;;;;5057410;28;20063;-77
2022/06/24 10:21:08;;;;;;;6.47;3.83;;;19.60;99.90;;;;;;5093495;28;20087;-78
2022/06/24 10:24:13;;;;;;;6.55;3.50;;;19.50;99.90;;;;;;5093514;28;20040;-77
2022/06/24 10:26:41;;;;;;;7.80;3.72;;;19.40;99.90;;;;;;5083941;28;20752;-75
2022/06/24 10:29:06;;;;;;;7.75;3.40;;;19.30;99.90;;;;;;5075106;28;20047;-75
2022/06/24 10:31:56;;;;;;;9.52;3.95;;;19.30;99.90;;;;;;5093371;28;20048;-76
2022/06/24 10:34:31;;;;;;;6.90;3.35;;;19.20;99.90;;;;;;5092909;28;20101;-74
2022/06/24 10:36:56;;;;;;;6.78;3.00;;;19.10;99.90;;;;;;5093294;28;20094;-72
2022/06/24 10:39:23;;;;;;;4.97;2.67;;;18.90;99.90;;;;;;5093127;28;20434;-73
2022/06/24 10:42:06;;;;;;;6.95;2.90;;;18.90;99.90;;;;;;5093205;28;20044;-73
2022/06/24 10:44:37;;;;;;;4.32;2.95;;;18.80;99.90;;;;;;5074627;28;20052;-78
2022/06/24 10:47:08;;;;;;;4.63;2.70;;;18.80;99.90;;;;;;5092751;28;20131;-78
2022/06/24 10:49:55;;;;;;;3.70;2.50;;;18.80;99.90;;;;;;5092402;28;20055;-78
2022/06/24 10:52:48;;;;;;;5.45;2.70;;;18.80;99.90;;;;;;5092917;28;20048;-79
2022/06/24 10:55:28;;;;;;;4.35;2.17;;;18.80;99.90;;;;;;5092662;28;20063;-79
2022/06/24 10:58:09;;;;;;;3.75;2.70;;;18.80;99.90;;;;;;5092579;28;20051;-81
2022/06/24 11:00:37;;;;;;;4.10;2.22;;;18.70;99.90;;;;;;5091264;28;20131;-78
2022/06/24 11:03:03;;;;;;;5.40;2.53;;;19.00;99.90;;;;;;5092608;28;20080;-78
2022/06/24 11:05:37;;;;;;;5.40;2.38;;;18.70;99.90;;;;;;5092326;28;20082;-80
2022/06/24 11:08:09;;;;;;;9.40;2.80;;;18.70;99.90;;;;;;5092442;28;20139;-80
2022/06/24 11:10:35;;;;;;;5.85;2.08;;;18.70;99.90;;;;;;5092382;28;20078;-79
2022/06/24 11:13:02;;;;;;;8.05;2.80;;;18.70;99.90;;;;;;5074275;28;20060;-79
2022/06/24 11:15:42;;;;;;;6.00;3.03;;;18.80;99.90;;;;;;5091992;28;20043;-79
2022/06/24 11:18:15;;;;;;;5.68;2.45;;;18.80;99.90;;;;;;5092214;28;20119;-78
2022/06/24 11:20:57;;;;;;;6.18;2.33;;;18.80;99.90;;;;;;5091992;28;20050;-79
2022/06/24 11:23:34;;;;;;;7.40;2.78;;;18.90;99.90;;;;;;5073868;28;20043;-80
2022/06/24 11:26:08;;;;;;;5.03;2.70;;;18.80;99.90;;;;;;5092010;28;20550;-80
2022/06/24 11:28:37;;;;;;;4.78;2.45;;;18.90;99.90;;;;;;5091860;28;20126;-80
2022/06/24 11:31:19;;;;;;;4.13;2.70;;;18.80;99.90;;;;;;5092051;28;20059;-80
2022/06/24 11:33:46;;;;;;;6.57;3.33;;;18.90;99.90;;;;;;5074004;28;20079;-80
2022/06/24 11:36:14;;;;;;;4.90;2.88;;;18.90;99.90;;;;;;5091825;28;20048;-80
2022/06/24 11:38:55;;;;;;;6.55;3.10;;;18.80;99.90;;;;;;5092091;28;20449;-80
2022/06/24 11:41:31;;;;;;;4.40;3.00;;;18.80;99.90;;;;;;5091787;28;20052;-80
2022/06/24 11:43:57;;;;;;;8.48;2.95;;;18.80;99.90;;;;;;5073416;28;20059;-80
2022/06/24 11:46:23;;;;;;;6.80;3.05;;;18.80;99.90;;;;;;5073793;28;20135;-81
2022/06/24 11:49:02;;;;;;;5.57;3.20;;;18.90;99.90;;;;;;5073654;28;20455;-80
2022/06/24 11:51:28;;;;;;;6.43;3.00;;;18.90;99.90;;;;;;5073053;28;20052;-80
2022/06/24 11:53:58;;;;;;;5.57;3.45;;;19.30;99.90;;;;;;5091531;28;20048;-80
2022/06/24 11:56:28;;;;;;;6.97;3.13;;;19.00;99.90;;;;;;5091158;28;20052;-80
2022/06/24 11:58:55;;;;;;;5.32;3.35;;;19.10;99.90;;;;;;5091715;28;20044;-81
2022/06/24 12:01:25;;;;;;;5.82;3.28;;;19.10;99.90;;;;;;5073439;28;20048;-80
2022/06/24 12:03:54;;;;;;;5.30;3.10;;;19.10;99.90;;;;;;5073472;28;20056;-80
2022/06/24 12:06:20;;;;;;;6.38;3.47;;;19.20;99.90;;;;;;5072881;28;20044;-80
2022/06/24 12:08:47;;;;;;;4.22;3.30;;;19.30;99.90;;;;;;5091490;28;20032;-80
2022/06/24 12:11:20;;;;;;;5.13;3.65;;;19.40;99.90;;;;;;5091041;28;20063;-80
2022/06/24 12:14:03;;;;;;;6.22;3.33;;;19.40;99.90;;;;;;5091512;28;20036;-80
2022/06/24 12:16:55;;;;;;;6.35;3.50;;;19.50;99.90;;;;;;5091404;28;20050;-80
2022/06/24 12:19:20;;;;;;;6.43;3.70;;;19.70;99.90;;;;;;5091171;28;20040;-81
2022/06/24 12:21:46;;;;;;;8.50;4.35;;;19.70;99.90;;;;;;5090761;28;20127;-80
2022/06/24 12:24:23;;;;;;;11.50;5.13;;;19.80;99.90;;;;;;5091104;28;20364;-80
2022/06/24 12:26:51;;;;;;;6.25;3.90;;;20.00;99.90;;;;;;5091237;28;20135;-81
2022/06/24 12:29:24;;;;;;;8.32;4.47;;;20.00;99.90;;;;;;5090518;28;20032;-80
2022/06/24 12:31:50;;;;;;;10.45;4.28;;;20.10;99.90;;;;;;5091094;28;20105;-79
2022/06/24 12:34:30;;;;;;;5.43;3.88;;;20.30;99.90;;;;;;5090776;28;20036;-79
2022/06/24 12:37:02;;;;;;;9.10;5.15;;;20.40;99.90;;;;;;5090817;28;20036;-78
2022/06/24 12:39:34;;;;;;;7.35;5.03;;;20.40;99.90;;;;;;5089514;28;20038;-78
2022/06/24 12:42:00;;;;;;;7.85;5.38;;;20.60;99.90;;;;;;5073051;28;20083;-80
2022/06/24 12:44:53;;;;;;;7.57;5.60;;;20.70;99.90;;;;;;5090938;28;20612;-78
2022/06/24 12:52:49;;;;;;;12.00;9.90;;;21.20;99.90;;;;;;5027913;28;19917;-79
2022/06/24 12:55:16;;;;;;;13.52;9.32;;;21.20;99.90;;;;;;5011599;28;20056;-77
2022/06/24 12:57:43;;;;;;;14.07;8.57;;;21.40;99.90;;;;;;5028180;28;20081;-77
2022/06/24 13:00:11;;;;;;;11.73;9.43;;;21.60;99.90;;;;;;5028423;28;20046;-78
2022/06/24 13:02:41;;;;;;;10.43;8.15;;;21.70;99.90;;;;;;5028346;28;20480;-77
2022/06/24 13:05:07;;;;;;;13.15;8.48;;;21.80;99.90;;;;;;5027997;28;20057;-76